createdAt,value
2023-04-30T00:00:41.415Z,100171.42
2023-04-30T00:02:04.513Z,100170.65
2023-04-30T00:03:07.570Z,100171.01
2023-04-30T00:04:10.612Z,100171.16
2023-04-30T00:05:13.477Z,100172.04
2023-04-30T00:06:16.432Z,100172.38
2023-04-30T00:07:19.362Z,100168.95
2023-04-30T00:08:22.290Z,100169.60
2023-04-30T00:09:25.519Z,100169.60
2023-04-30T00:10:28.434Z,100171.00
2023-04-30T00:11:31.368Z,100174.10
2023-04-30T00:12:34.186Z,100167.53
2023-04-30T00:13:37.562Z,100169.38
2023-04-30T00:14:40.380Z,100168.43
2023-04-30T00:15:43.199Z,100179.36
2023-04-30T00:16:46.504Z,100179.46
2023-04-30T00:17:49.459Z,100182.71
2023-04-30T00:18:52.404Z,100171.90
2023-04-30T00:19:55.782Z,100174.23
2023-04-30T00:20:58.718Z,100172.10
2023-04-30T00:22:05.542Z,100173.54
2023-04-30T00:23:08.497Z,100173.48
2023-04-30T00:24:11.655Z,100173.75
2023-04-30T00:25:14.573Z,100172.35
2023-04-30T00:26:17.402Z,100183.14
2023-04-30T00:27:21.786Z,100180.25
2023-04-30T00:28:24.647Z,100178.51
2023-04-30T00:29:27.517Z,100182.42
2023-04-30T00:30:30.467Z,100179.70
2023-04-30T00:31:33.388Z,100180.08
2023-04-30T00:32:36.449Z,100180.35
2023-04-30T00:33:39.588Z,100181.21
2023-04-30T00:34:42.805Z,100179.38
2023-04-30T00:35:45.770Z,100183.98
2023-04-30T00:36:48.590Z,100184.11
2023-04-30T00:37:51.445Z,100185.84
2023-04-30T00:38:54.331Z,100193.67
2023-04-30T00:39:57.506Z,100184.33
2023-04-30T00:41:00.500Z,100183.56
2023-04-30T00:42:03.423Z,100188.36
2023-04-30T00:43:06.333Z,100185.80
2023-04-30T00:44:09.187Z,100192.92
2023-04-30T00:45:12.288Z,100187.55
2023-04-30T00:46:15.384Z,100185.65
2023-04-30T00:47:18.475Z,100183.05
2023-04-30T00:48:21.893Z,100183.86
2023-04-30T00:49:25.374Z,100190.91
2023-04-30T00:50:29.374Z,100189.89
2023-04-30T00:51:33.445Z,100189.55
2023-04-30T00:52:36.430Z,100189.45
2023-04-30T00:53:41.373Z,100189.17
2023-04-30T00:54:44.349Z,100189.30
2023-04-30T00:55:48.648Z,100188.17
2023-04-30T00:56:52.140Z,100187.48
2023-04-30T00:57:55.287Z,100188.95
2023-04-30T00:58:58.496Z,100191.83
2023-04-30T01:00:02.122Z,100189.91
2023-04-30T01:01:06.929Z,100188.58
2023-04-30T01:02:10.376Z,100191.65
2023-04-30T01:03:14.521Z,100188.24
2023-04-30T01:04:18.382Z,100190.20
2023-04-30T01:05:22.985Z,100187.48
2023-04-30T01:06:27.037Z,100188.46
2023-04-30T01:07:31.402Z,100188.63
2023-04-30T01:08:34.750Z,100188.84
2023-04-30T01:09:38.186Z,100188.64
2023-04-30T01:11:19.880Z,100190.83
2023-04-30T01:12:42.845Z,100185.77
2023-04-30T01:14:08.458Z,100184.32
2023-04-30T01:15:33.416Z,100185.30
2023-04-30T01:16:58.402Z,100185.52
2023-04-30T01:18:09.267Z,100190.40
2023-04-30T01:19:41.129Z,100190.77
2023-04-30T01:21:07.748Z,100187.90
2023-04-30T01:22:24.159Z,100188.92
2023-04-30T01:23:35.980Z,100191.20
2023-04-30T01:25:02.186Z,100192.55
2023-04-30T01:26:08.434Z,100195.05
2023-04-30T01:27:48.343Z,100198.41
2023-04-30T01:28:53.458Z,100196.30
2023-04-30T01:29:58.018Z,100192.29
2023-04-30T01:31:01.635Z,100202.14
2023-04-30T01:32:04.593Z,100206.02
2023-04-30T01:33:07.580Z,100207.91
2023-04-30T01:34:10.635Z,100206.94
2023-04-30T01:35:13.479Z,100209.81
2023-04-30T01:37:10.651Z,100209.16
2023-04-30T01:38:37.746Z,100208.95
2023-04-30T01:40:11.432Z,100207.91
2023-04-30T01:41:24.761Z,100208.89
2023-04-30T01:43:05.793Z,100212.73
2023-04-30T01:44:41.239Z,100210.73
2023-04-30T01:45:54.509Z,100209.92
2023-04-30T01:47:17.262Z,100210.63
2023-04-30T01:48:32.626Z,100213.77
2023-04-30T01:50:01.076Z,100211.71
2023-04-30T01:51:22.750Z,100209.16
2023-04-30T01:52:43.054Z,100210.46
2023-04-30T01:53:47.003Z,100215.83
2023-04-30T01:54:56.420Z,100215.56
2023-04-30T01:56:03.733Z,100217.73
2023-04-30T01:57:11.629Z,100211.00
2023-04-30T01:58:16.767Z,100209.31
2023-04-30T01:59:20.266Z,100209.86
2023-04-30T02:00:23.659Z,100212.52
2023-04-30T02:01:28.740Z,100210.08
2023-04-30T02:02:31.916Z,100212.58
2023-04-30T02:03:34.844Z,100214.09
2023-04-30T02:04:38.403Z,100212.41
2023-04-30T02:05:41.382Z,100213.33
2023-04-30T02:06:44.311Z,100215.23
2023-04-30T02:07:49.297Z,100215.71
2023-04-30T02:08:52.245Z,100213.33
2023-04-30T02:09:55.335Z,100219.63
2023-04-30T02:10:58.400Z,100218.31
2023-04-30T02:12:01.284Z,100218.43
2023-04-30T02:13:04.173Z,100217.83
2023-04-30T02:14:07.199Z,100220.16
2023-04-30T02:15:10.956Z,100217.23
2023-04-30T02:16:14.019Z,100221.14
2023-04-30T02:17:16.901Z,100223.64
2023-04-30T02:18:19.802Z,100220.82
2023-04-30T02:19:23.137Z,100227.60
2023-04-30T02:20:25.982Z,100225.32
2023-04-30T02:21:29.381Z,100224.23
2023-04-30T02:22:32.272Z,100223.53
2023-04-30T02:23:35.440Z,100223.42
2023-04-30T02:24:38.297Z,100223.96
2023-04-30T02:25:41.771Z,100225.42
2023-04-30T02:26:44.688Z,100227.70
2023-04-30T02:27:47.777Z,100226.23
2023-04-30T02:28:50.677Z,100230.79
2023-04-30T02:29:54.138Z,100230.66
2023-04-30T02:30:57.414Z,100229.02
2023-04-30T02:32:00.896Z,100230.16
2023-04-30T02:33:03.976Z,100231.73
2023-04-30T02:34:06.901Z,100229.66
2023-04-30T02:35:09.849Z,100231.08
2023-04-30T02:36:12.737Z,100231.51
2023-04-30T02:37:16.111Z,100237.80
2023-04-30T02:38:18.950Z,100236.06
2023-04-30T02:39:22.003Z,100236.77
2023-04-30T02:40:24.887Z,100239.15
2023-04-30T02:41:27.711Z,100239.93
2023-04-30T02:42:31.095Z,100241.56
2023-04-30T02:43:33.986Z,100241.55
2023-04-30T02:44:36.950Z,100241.49
2023-04-30T02:45:40.420Z,100248.38
2023-04-30T02:46:43.320Z,100248.98
2023-04-30T02:47:46.201Z,100255.33
2023-04-30T02:48:49.167Z,100255.27
2023-04-30T02:49:52.724Z,100260.98
2023-04-30T02:50:55.875Z,100257.81
2023-04-30T02:51:58.787Z,100260.52
2023-04-30T02:53:01.974Z,100261.11
2023-04-30T02:54:04.776Z,100263.02
2023-04-30T02:55:08.103Z,100273.34
2023-04-30T02:56:11.219Z,100267.57
2023-04-30T02:57:14.140Z,100264.42
2023-04-30T02:58:17.013Z,100265.89
2023-04-30T02:59:19.900Z,100265.29
2023-04-30T03:00:23.266Z,100268.14
2023-04-30T03:01:26.420Z,100268.40
2023-04-30T03:02:29.861Z,100269.59
2023-04-30T03:03:33.780Z,100270.66
2023-04-30T03:04:36.689Z,100274.67
2023-04-30T03:05:39.872Z,100272.98
2023-04-30T03:06:42.717Z,100272.77
2023-04-30T03:07:47.168Z,100272.71
2023-04-30T03:08:50.028Z,100274.41
2023-04-30T03:09:53.036Z,100275.22
2023-04-30T03:10:56.241Z,100278.48
2023-04-30T03:11:59.288Z,100280.04
2023-04-30T03:13:02.294Z,100285.91
2023-04-30T03:14:05.252Z,100282.36
2023-04-30T03:15:09.032Z,100282.42
2023-04-30T03:16:12.065Z,100286.54
2023-04-30T03:17:14.990Z,100285.17
2023-04-30T03:18:17.863Z,100286.14
2023-04-30T03:19:25.135Z,100299.33
2023-04-30T03:20:28.365Z,100292.50
2023-04-30T03:21:31.602Z,100293.95
2023-04-30T03:22:34.504Z,100295.68
2023-04-30T03:23:37.714Z,100297.59
2023-04-30T03:24:41.258Z,100294.59
2023-04-30T03:25:44.897Z,100294.86
2023-04-30T03:26:47.793Z,100302.02
2023-04-30T03:27:50.661Z,100304.02
2023-04-30T03:28:55.244Z,100305.60
2023-04-30T03:29:58.058Z,100300.50
2023-04-30T03:31:01.256Z,100306.12
2023-04-30T03:32:04.446Z,100314.44
2023-04-30T03:33:07.986Z,100313.83
2023-04-30T03:34:11.483Z,100317.64
2023-04-30T03:35:14.535Z,100320.10
2023-04-30T03:36:17.387Z,100318.02
2023-04-30T03:37:20.287Z,100324.50
2023-04-30T03:38:23.251Z,100322.38
2023-04-30T03:39:26.235Z,100326.35
2023-04-30T03:40:29.307Z,100328.91
2023-04-30T03:41:32.232Z,100326.41
2023-04-30T03:42:35.155Z,100332.02
2023-04-30T03:43:38.337Z,100332.64
2023-04-30T03:44:41.408Z,100333.45
2023-04-30T03:45:44.739Z,100334.50
2023-04-30T03:46:47.610Z,100346.29
2023-04-30T03:47:52.237Z,100348.96
2023-04-30T03:48:55.209Z,100346.84
2023-04-30T03:49:58.115Z,100347.55
2023-04-30T03:51:01.427Z,100347.58
2023-04-30T03:52:05.729Z,100350.35
2023-04-30T03:53:09.147Z,100351.99
2023-04-30T03:54:12.092Z,100358.84
2023-04-30T03:55:15.284Z,100355.90
2023-04-30T03:56:18.332Z,100352.40
2023-04-30T03:57:21.783Z,100358.12
2023-04-30T03:58:24.967Z,100363.84
2023-04-30T03:59:27.783Z,100360.84
2023-04-30T04:00:31.235Z,100358.73
2023-04-30T04:01:34.360Z,100365.57
2023-04-30T04:02:37.844Z,100367.76
2023-04-30T04:03:40.998Z,100373.52
2023-04-30T04:04:44.109Z,100375.23
2023-04-30T04:05:47.409Z,100385.02
2023-04-30T04:06:50.661Z,100384.06
2023-04-30T04:07:54.048Z,100382.00
2023-04-30T04:08:56.871Z,100385.55
2023-04-30T04:09:59.790Z,100391.21
2023-04-30T04:11:03.344Z,100391.71
2023-04-30T04:12:06.784Z,100396.71
2023-04-30T04:13:09.723Z,100401.80
2023-04-30T04:14:12.724Z,100399.29
2023-04-30T04:15:15.665Z,100395.50
2023-04-30T04:16:20.786Z,100401.07
2023-04-30T04:17:23.777Z,100409.38
2023-04-30T04:18:26.734Z,100407.05
2023-04-30T04:19:29.648Z,100410.16
2023-04-30T04:20:34.084Z,100408.72
2023-04-30T04:21:37.124Z,100412.05
2023-04-30T04:22:43.072Z,100419.04
2023-04-30T04:23:46.444Z,100421.48
2023-04-30T04:24:49.904Z,100416.04
2023-04-30T04:25:55.508Z,100424.63
2023-04-30T04:26:58.384Z,100422.39
2023-04-30T04:28:01.271Z,100420.82
2023-04-30T04:29:05.010Z,100421.44
2023-04-30T04:30:08.343Z,100425.04
2023-04-30T04:31:11.673Z,100427.04
2023-04-30T04:32:15.039Z,100428.27
2023-04-30T04:33:18.369Z,100428.93
2023-04-30T04:34:21.409Z,100432.83
2023-04-30T04:35:24.364Z,100433.64
2023-04-30T04:36:28.816Z,100431.95
2023-04-30T04:37:32.091Z,100437.91
2023-04-30T04:38:34.933Z,100438.53
2023-04-30T04:39:38.600Z,100439.59
2023-04-30T04:40:41.547Z,100438.19
2023-04-30T04:41:44.701Z,100444.66
2023-04-30T04:42:50.519Z,100439.23
2023-04-30T04:43:53.549Z,100451.31
2023-04-30T04:44:56.857Z,100455.25
2023-04-30T04:45:59.771Z,100456.42
2023-04-30T04:47:03.537Z,100460.50
2023-04-30T04:48:07.459Z,100460.11
2023-04-30T04:49:10.416Z,100457.02
2023-04-30T04:50:13.846Z,100457.63
2023-04-30T04:51:16.908Z,100459.13
2023-04-30T04:52:19.815Z,100458.11
2023-04-30T04:53:24.289Z,100465.13
2023-04-30T04:54:27.209Z,100464.82
2023-04-30T04:55:30.114Z,100464.08
2023-04-30T04:56:34.157Z,100472.88
2023-04-30T04:57:37.052Z,100469.26
2023-04-30T04:58:40.063Z,100477.43
2023-04-30T04:59:42.928Z,100480.36
2023-04-30T05:00:45.889Z,100470.48
2023-04-30T05:01:49.769Z,100475.55
2023-04-30T05:02:53.613Z,100478.45
2023-04-30T05:03:56.863Z,100477.79
2023-04-30T05:05:00.158Z,100480.39
2023-04-30T05:06:03.929Z,100485.98
2023-04-30T05:07:08.182Z,100481.89
2023-04-30T05:08:11.167Z,100483.73
2023-04-30T05:09:14.147Z,100486.13
2023-04-30T05:10:17.216Z,100482.27
2023-04-30T05:11:20.115Z,100487.24
2023-04-30T05:12:23.155Z,100484.91
2023-04-30T05:13:26.464Z,100484.71
2023-04-30T05:14:29.516Z,100487.63
2023-04-30T05:15:32.382Z,100491.80
2023-04-30T05:16:35.457Z,100492.23
2023-04-30T05:17:38.443Z,100499.05
2023-04-30T05:18:41.370Z,100493.90
2023-04-30T05:19:44.761Z,100493.36
2023-04-30T05:20:47.665Z,100499.15
2023-04-30T05:21:51.392Z,100505.00
2023-04-30T05:22:54.218Z,100507.20
2023-04-30T05:23:57.228Z,100504.10
2023-04-30T05:25:00.325Z,100502.86
2023-04-30T05:26:03.914Z,100507.84
2023-04-30T05:27:06.781Z,100506.41
2023-04-30T05:28:09.956Z,100504.13
2023-04-30T05:29:12.987Z,100509.59
2023-04-30T05:30:15.978Z,100508.30
2023-04-30T05:31:20.784Z,100511.66
2023-04-30T05:32:24.102Z,100518.56
2023-04-30T05:33:27.456Z,100513.77
2023-04-30T05:34:30.403Z,100514.21
2023-04-30T05:35:36.119Z,100517.64
2023-04-30T05:36:39.258Z,100514.91
2023-04-30T05:37:42.119Z,100518.99
2023-04-30T05:38:45.013Z,100525.77
2023-04-30T05:39:47.915Z,100522.89
2023-04-30T05:40:50.815Z,100525.17
2023-04-30T05:41:53.665Z,100526.13
2023-04-30T05:42:56.784Z,100528.96
2023-04-30T05:43:59.744Z,100528.81
2023-04-30T05:45:03.155Z,100534.58
2023-04-30T05:46:06.703Z,100532.11
2023-04-30T05:47:09.795Z,100531.09
2023-04-30T05:48:13.163Z,100540.29
2023-04-30T05:49:16.103Z,100536.34
2023-04-30T05:50:19.008Z,100537.40
2023-04-30T05:51:21.873Z,100538.76
2023-04-30T05:52:24.827Z,100535.77
2023-04-30T05:53:28.356Z,100543.67
2023-04-30T05:54:31.462Z,100544.87
2023-04-30T05:55:34.725Z,100544.80
2023-04-30T05:56:37.592Z,100548.77
2023-04-30T05:57:40.459Z,100545.45
2023-04-30T05:58:43.369Z,100547.96
2023-04-30T05:59:46.223Z,100547.02
2023-04-30T06:00:52.102Z,100555.55
2023-04-30T06:01:55.021Z,100552.09
2023-04-30T06:02:58.220Z,100549.54
2023-04-30T06:04:01.420Z,100548.63
2023-04-30T06:05:04.597Z,100557.21
2023-04-30T06:06:07.729Z,100558.88
2023-04-30T06:07:10.909Z,100552.52
2023-04-30T06:08:14.115Z,100552.58
2023-04-30T06:09:16.942Z,100565.71
2023-04-30T06:10:19.790Z,100561.41
2023-04-30T06:11:22.772Z,100559.08
2023-04-30T06:12:26.168Z,100558.30
2023-04-30T06:13:29.055Z,100559.87
2023-04-30T06:14:32.176Z,100562.13
2023-04-30T06:15:35.198Z,100561.60
2023-04-30T06:16:38.595Z,100559.89
2023-04-30T06:17:41.547Z,100566.38
2023-04-30T06:18:44.760Z,100562.45
2023-04-30T06:19:47.628Z,100568.61
2023-04-30T06:20:50.546Z,100567.30
2023-04-30T06:21:53.372Z,100572.52
2023-04-30T06:22:56.254Z,100575.00
2023-04-30T06:23:59.128Z,100571.56
2023-04-30T06:25:02.045Z,100572.19
2023-04-30T06:26:05.004Z,100576.91
2023-04-30T06:27:07.843Z,100577.96
2023-04-30T06:28:10.864Z,100571.20
2023-04-30T06:29:13.757Z,100581.11
2023-04-30T06:30:16.963Z,100579.81
2023-04-30T06:31:19.885Z,100573.88
2023-04-30T06:32:22.833Z,100574.23
2023-04-30T06:33:25.838Z,100575.77
2023-04-30T06:34:28.805Z,100577.30
2023-04-30T06:35:31.626Z,100574.36
2023-04-30T06:36:34.494Z,100569.70
2023-04-30T06:37:38.121Z,100571.10
2023-04-30T06:38:42.622Z,100571.20
2023-04-30T06:39:45.569Z,100570.52
2023-04-30T06:40:48.542Z,100567.17
2023-04-30T06:41:52.118Z,100568.77
2023-04-30T06:42:57.898Z,100562.42
2023-04-30T06:44:00.871Z,100565.89
2023-04-30T06:45:04.179Z,100563.93
2023-04-30T06:46:07.155Z,100568.81
2023-04-30T06:47:13.653Z,100567.81
2023-04-30T06:48:16.631Z,100568.64
2023-04-30T06:49:19.544Z,100567.23
2023-04-30T06:50:22.439Z,100570.48
2023-04-30T06:51:25.726Z,100573.41
2023-04-30T06:52:31.264Z,100574.62
2023-04-30T06:53:34.138Z,100577.82
2023-04-30T06:54:37.180Z,100581.39
2023-04-30T06:55:41.396Z,100576.52
2023-04-30T06:56:45.202Z,100581.90
2023-04-30T06:57:48.277Z,100578.36
2023-04-30T06:58:51.112Z,100580.33
2023-04-30T06:59:55.998Z,100586.36
2023-04-30T07:00:59.016Z,100584.23
2023-04-30T07:02:02.062Z,100586.21
2023-04-30T07:03:05.058Z,100587.20
2023-04-30T07:04:08.000Z,100588.86
2023-04-30T07:05:12.206Z,100591.77
2023-04-30T07:06:15.624Z,100590.77
2023-04-30T07:07:18.608Z,100589.96
2023-04-30T07:08:22.130Z,100589.90
2023-04-30T07:09:24.973Z,100586.63
2023-04-30T07:10:28.066Z,100590.48
2023-04-30T07:11:31.230Z,100590.78
2023-04-30T07:12:34.197Z,100592.08
2023-04-30T07:13:37.384Z,100594.44
2023-04-30T07:14:40.416Z,100596.14
2023-04-30T07:15:43.520Z,100596.44
2023-04-30T07:16:46.448Z,100592.60
2023-04-30T07:17:49.689Z,100595.67
2023-04-30T07:18:52.607Z,100599.55
2023-04-30T07:19:56.022Z,100600.16
2023-04-30T07:20:59.566Z,100600.30
2023-04-30T07:22:02.607Z,100600.80
2023-04-30T07:23:05.449Z,100603.15
2023-04-30T07:24:08.436Z,100601.10
2023-04-30T07:25:12.334Z,100601.06
2023-04-30T07:26:15.766Z,100602.29
2023-04-30T07:27:18.626Z,100603.67
2023-04-30T07:28:21.501Z,100602.27
2023-04-30T07:29:24.351Z,100605.77
2023-04-30T07:30:27.196Z,100608.41
2023-04-30T07:31:30.263Z,100612.45
2023-04-30T07:32:34.442Z,100610.02
2023-04-30T07:33:37.572Z,100609.68
2023-04-30T07:34:42.238Z,100615.64
2023-04-30T07:35:45.213Z,100617.76
2023-04-30T07:36:49.267Z,100616.72
2023-04-30T07:37:52.138Z,100619.41
2023-04-30T07:38:55.604Z,100620.02
2023-04-30T07:39:58.540Z,100621.29
2023-04-30T07:41:02.338Z,100630.61
2023-04-30T07:42:05.588Z,100630.40
2023-04-30T07:43:08.392Z,100628.71
2023-04-30T07:44:12.206Z,100630.09
2023-04-30T07:45:15.187Z,100632.09
2023-04-30T07:46:18.299Z,100632.17
2023-04-30T07:47:21.396Z,100635.96
2023-04-30T07:48:24.263Z,100639.93
2023-04-30T07:49:27.160Z,100637.45
2023-04-30T07:50:33.928Z,100633.98
2023-04-30T07:51:37.525Z,100634.83
2023-04-30T07:52:41.297Z,100639.94
2023-04-30T07:53:44.144Z,100640.02
2023-04-30T07:54:47.035Z,100639.85
2023-04-30T07:55:49.872Z,100637.88
2023-04-30T07:56:52.745Z,100637.29
2023-04-30T07:57:55.674Z,100634.61
2023-04-30T07:58:58.496Z,100637.11
2023-04-30T08:00:01.302Z,100642.76
2023-04-30T08:01:04.290Z,100643.48
2023-04-30T08:02:08.855Z,100645.36
2023-04-30T08:03:12.488Z,100647.33
2023-04-30T08:04:15.542Z,100645.18
2023-04-30T08:05:18.607Z,100644.95
2023-04-30T08:06:21.927Z,100644.14
2023-04-30T08:07:25.652Z,100647.71
2023-04-30T08:08:28.527Z,100650.27
2023-04-30T08:09:31.630Z,100649.92
2023-04-30T08:10:34.992Z,100648.80
2023-04-30T08:11:37.865Z,100649.13
2023-04-30T08:12:40.883Z,100650.83
2023-04-30T08:13:43.808Z,100656.52
2023-04-30T08:14:46.655Z,100649.99
2023-04-30T08:15:49.589Z,100648.33
2023-04-30T08:16:52.554Z,100651.60
2023-04-30T08:17:55.684Z,100650.52
2023-04-30T08:18:59.433Z,100649.78
2023-04-30T08:20:04.557Z,100653.19
2023-04-30T08:21:07.680Z,100659.70
2023-04-30T08:22:10.899Z,100660.63
2023-04-30T08:23:13.805Z,100659.04
2023-04-30T08:24:16.662Z,100657.61
2023-04-30T08:25:19.787Z,100656.95
2023-04-30T08:26:23.501Z,100660.36
2023-04-30T08:27:26.352Z,100660.31
2023-04-30T08:28:29.199Z,100664.27
2023-04-30T08:29:32.066Z,100663.83
2023-04-30T08:30:34.929Z,100662.41
2023-04-30T08:31:37.974Z,100663.18
2023-04-30T08:32:41.678Z,100662.61
2023-04-30T08:33:44.604Z,100660.07
2023-04-30T08:34:47.490Z,100664.77
2023-04-30T08:35:51.645Z,100663.33
2023-04-30T08:36:54.558Z,100663.73
2023-04-30T08:37:57.513Z,100667.61
2023-04-30T08:39:02.217Z,100670.21
2023-04-30T08:40:09.791Z,100670.66
2023-04-30T08:41:13.867Z,100675.52
2023-04-30T08:42:19.155Z,100674.74
2023-04-30T08:43:22.651Z,100666.88
2023-04-30T08:44:27.487Z,100666.03
2023-04-30T08:45:32.235Z,100665.71
2023-04-30T08:46:37.158Z,100667.27
2023-04-30T08:47:41.195Z,100667.17
2023-04-30T08:48:44.997Z,100669.51
2023-04-30T08:49:52.260Z,100667.11
2023-04-30T08:50:55.347Z,100670.55
2023-04-30T08:52:00.326Z,100670.02
2023-04-30T08:53:03.410Z,100667.62
2023-04-30T08:54:06.404Z,100670.20
2023-04-30T08:55:11.227Z,100667.29
2023-04-30T08:56:14.232Z,100668.45
2023-04-30T08:57:17.123Z,100673.07
2023-04-30T08:58:20.165Z,100680.13
2023-04-30T08:59:23.042Z,100672.83
2023-04-30T09:00:27.037Z,100671.20
2023-04-30T09:01:31.101Z,100674.39
2023-04-30T09:02:34.978Z,100677.55
2023-04-30T09:03:38.188Z,100676.76
2023-04-30T09:04:41.304Z,100683.54
2023-04-30T09:05:44.315Z,100682.46
2023-04-30T09:06:47.324Z,100681.39
2023-04-30T09:08:01.543Z,100681.95
2023-04-30T09:09:11.658Z,100690.06
2023-04-30T09:10:22.965Z,100689.38
2023-04-30T09:11:31.990Z,100690.59
2023-04-30T09:12:36.253Z,100687.86
2023-04-30T09:13:42.110Z,100689.16
2023-04-30T09:15:05.748Z,100694.38
2023-04-30T09:16:08.717Z,100693.37
2023-04-30T09:17:22.091Z,100692.83
2023-04-30T09:18:24.972Z,100693.50
2023-04-30T09:19:29.791Z,100698.02
2023-04-30T09:20:32.796Z,100693.73
2023-04-30T09:21:36.886Z,100693.09
2023-04-30T09:22:41.541Z,100694.36
2023-04-30T09:24:05.463Z,100700.80
2023-04-30T09:25:09.785Z,100705.41
2023-04-30T09:26:26.272Z,100696.39
2023-04-30T09:27:29.122Z,100700.20
2023-04-30T09:28:32.070Z,100698.95
2023-04-30T09:29:38.060Z,100704.33
2023-04-30T09:30:41.702Z,100706.38
2023-04-30T09:31:47.718Z,100707.70
2023-04-30T09:32:57.104Z,100703.61
2023-04-30T09:34:00.425Z,100701.73
2023-04-30T09:35:03.336Z,100704.38
2023-04-30T09:36:10.045Z,100706.13
2023-04-30T09:37:13.548Z,100705.02
2023-04-30T09:38:32.006Z,100711.57
2023-04-30T09:39:47.525Z,100704.47
2023-04-30T09:40:50.511Z,100705.38
2023-04-30T09:41:57.211Z,100702.80
2023-04-30T09:43:00.426Z,100703.98
2023-04-30T09:44:03.512Z,100702.27
2023-04-30T09:45:07.838Z,100703.92
2023-04-30T09:46:11.276Z,100710.86
2023-04-30T09:47:21.959Z,100708.48
2023-04-30T09:48:29.470Z,100706.02
2023-04-30T09:49:32.475Z,100707.31
2023-04-30T09:50:43.256Z,100708.78
2023-04-30T09:52:02.436Z,100706.68
2023-04-30T09:53:09.844Z,100706.88
2023-04-30T09:54:14.145Z,100708.30
2023-04-30T09:55:17.398Z,100708.90
2023-04-30T09:56:26.836Z,100707.89
2023-04-30T09:57:32.428Z,100707.26
2023-04-30T09:58:39.018Z,100701.30
2023-04-30T09:59:46.800Z,100699.80
2023-04-30T10:00:52.535Z,100700.33
2023-04-30T10:01:58.005Z,100697.83
2023-04-30T10:03:07.301Z,100698.21
2023-04-30T10:04:10.517Z,100696.63
2023-04-30T10:05:13.551Z,100695.73
2023-04-30T10:06:19.642Z,100701.96
2023-04-30T10:07:25.355Z,100701.83
2023-04-30T10:08:28.981Z,100698.60
2023-04-30T10:09:44.908Z,100703.14
2023-04-30T10:10:54.376Z,100698.80
2023-04-30T10:11:57.480Z,100700.17
2023-04-30T10:13:07.560Z,100700.23
2023-04-30T10:14:12.983Z,100700.54
2023-04-30T10:15:21.162Z,100700.05
2023-04-30T10:16:34.770Z,100698.48
2023-04-30T10:17:41.649Z,100701.80
2023-04-30T10:18:46.586Z,100702.52
2023-04-30T10:19:52.578Z,100701.32
2023-04-30T10:20:57.173Z,100695.15
2023-04-30T10:22:01.715Z,100700.73
2023-04-30T10:23:05.722Z,100702.18
2023-04-30T10:24:11.634Z,100703.56
2023-04-30T10:25:14.734Z,100699.86
2023-04-30T10:26:18.042Z,100695.92
2023-04-30T10:27:21.406Z,100696.21
2023-04-30T10:28:26.027Z,100698.57
2023-04-30T10:29:28.918Z,100699.30
2023-04-30T10:30:32.342Z,100697.54
2023-04-30T10:31:37.374Z,100700.23
2023-04-30T10:33:01.536Z,100699.80
2023-04-30T10:34:29.106Z,100700.63
2023-04-30T10:35:41.589Z,100701.28
2023-04-30T10:36:50.637Z,100697.48
2023-04-30T10:38:09.992Z,100701.71
2023-04-30T10:39:13.714Z,100696.95
2023-04-30T10:40:16.715Z,100696.39
2023-04-30T10:41:20.373Z,100697.17
2023-04-30T10:42:23.283Z,100696.39
2023-04-30T10:43:26.549Z,100697.42
2023-04-30T10:44:32.842Z,100690.63
2023-04-30T10:45:38.299Z,100687.02
2023-04-30T10:46:41.789Z,100687.56
2023-04-30T10:47:48.293Z,100689.39
2023-04-30T10:48:54.289Z,100696.00
2023-04-30T10:50:09.071Z,100696.80
2023-04-30T10:51:11.963Z,100695.77
2023-04-30T10:52:14.774Z,100694.61
2023-04-30T10:53:20.260Z,100699.15
2023-04-30T10:54:30.184Z,100704.46
2023-04-30T10:55:33.608Z,100708.21
2023-04-30T10:56:36.668Z,100704.93
2023-04-30T10:57:44.123Z,100704.91
2023-04-30T10:58:47.596Z,100703.01
2023-04-30T10:59:50.371Z,100703.12
2023-04-30T11:01:12.299Z,100701.41
2023-04-30T11:02:18.121Z,100701.87
2023-04-30T11:03:22.608Z,100696.98
2023-04-30T11:04:26.620Z,100699.72
2023-04-30T11:05:39.980Z,100696.35
2023-04-30T11:07:00.853Z,100703.21
2023-04-30T11:08:04.266Z,100707.20
2023-04-30T11:09:07.425Z,100705.75
2023-04-30T11:10:10.672Z,100715.14
2023-04-30T11:11:22.983Z,100707.10
2023-04-30T11:12:30.565Z,100709.45
2023-04-30T11:13:47.740Z,100705.61
2023-04-30T11:14:50.933Z,100709.39
2023-04-30T11:15:54.493Z,100709.48
2023-04-30T11:16:59.670Z,100711.30
2023-04-30T11:18:02.854Z,100713.55
2023-04-30T11:19:09.480Z,100708.96
2023-04-30T11:20:15.456Z,100710.21
2023-04-30T11:21:21.514Z,100715.65
2023-04-30T11:22:25.438Z,100716.20
2023-04-30T11:23:39.389Z,100712.15
2023-04-30T11:25:00.006Z,100709.28
2023-04-30T11:26:03.731Z,100709.61
2023-04-30T11:27:06.998Z,100713.54
2023-04-30T11:28:15.884Z,100713.25
2023-04-30T11:29:18.991Z,100714.63
2023-04-30T11:30:22.352Z,100714.11
2023-04-30T11:31:33.768Z,100714.52
2023-04-30T11:32:38.667Z,100716.65
2023-04-30T11:33:41.816Z,100713.56
2023-04-30T11:35:57.428Z,100717.98
2023-04-30T11:37:03.618Z,100728.80
2023-04-30T11:38:08.659Z,100716.96
2023-04-30T11:39:12.196Z,100720.39
2023-04-30T11:40:15.760Z,100720.06
2023-04-30T11:41:21.488Z,100724.54
2023-04-30T11:42:24.345Z,100728.73
2023-04-30T11:43:32.004Z,100728.80
2023-04-30T11:44:34.926Z,100727.02
2023-04-30T11:45:39.363Z,100730.14
2023-04-30T11:46:42.324Z,100730.02
2023-04-30T11:47:46.377Z,100727.65
2023-04-30T11:48:49.799Z,100725.27
2023-04-30T11:49:53.659Z,100729.80
2023-04-30T11:50:56.856Z,100733.49
2023-04-30T11:51:59.835Z,100732.87
2023-04-30T11:53:04.039Z,100738.42
2023-04-30T11:54:08.856Z,100736.34
2023-04-30T11:55:16.510Z,100737.93
2023-04-30T11:56:21.458Z,100738.92
2023-04-30T11:57:24.395Z,100736.22
2023-04-30T11:58:28.976Z,100732.20
2023-04-30T11:59:40.238Z,100730.89
2023-04-30T12:00:43.160Z,100727.88
2023-04-30T12:01:46.265Z,100737.50
2023-04-30T12:02:50.262Z,100740.66
2023-04-30T12:03:57.545Z,100743.27
2023-04-30T12:05:00.729Z,100744.55
2023-04-30T12:06:03.727Z,100739.55
2023-04-30T12:07:08.963Z,100735.11
2023-04-30T12:08:12.458Z,100740.35
2023-04-30T12:09:15.294Z,100746.11
2023-04-30T12:10:21.305Z,100743.91
2023-04-30T12:11:29.432Z,100747.51
2023-04-30T12:12:32.616Z,100745.50
2023-04-30T12:13:35.528Z,100745.11
2023-04-30T12:14:38.433Z,100744.83
2023-04-30T12:15:41.472Z,100748.67
2023-04-30T12:16:50.323Z,100748.39
2023-04-30T12:17:55.224Z,100750.54
2023-04-30T12:18:58.156Z,100750.66
2023-04-30T12:20:01.656Z,100745.49
2023-04-30T12:21:04.896Z,100746.91
2023-04-30T12:22:07.792Z,100750.34
2023-04-30T12:23:10.798Z,100743.57